sensor_id;sensor_type;location;lat;lon;timestamp;P1;durP1;ratioP1;P2;durP2;ratioP2
3333;SDS011;1679;50.392;8.008;2022-07-06T00:01:29;6.63;;;3.47;;
3333;SDS011;1679;50.392;8.008;2022-07-06T00:03:55;3.60;;;3.30;;
3333;SDS011;1679;50.392;8.008;2022-07-06T00:06:22;3.13;;;2.93;;
3333;SDS011;1679;50.392;8.008;2022-07-06T00:08:47;3.40;;;3.20;;
3333;SDS011;1679;50.392;8.008;2022-07-06T00:11:13;2.80;;;2.60;;
3333;SDS011;1679;50.392;8.008;2022-07-06T00:13:39;2.90;;;2.70;;
3333;SDS011;1679;50.392;8.008;2022-07-06T00:16:04;3.40;;;2.80;;
3333;SDS011;1679;50.392;8.008;2022-07-06T00:18:30;3.40;;;2.30;;
3333;SDS011;1679;50.392;8.008;2022-07-06T00:20:56;2.87;;;2.53;;
3333;SDS011;1679;50.392;8.008;2022-07-06T00:23:22;3.20;;;2.63;;
3333;SDS011;1679;50.392;8.008;2022-07-06T00:25:48;3.43;;;2.73;;
3333;SDS011;1679;50.392;8.008;2022-07-06T00:28:13;3.60;;;2.20;;
3333;SDS011;1679;50.392;8.008;2022-07-06T00:30:39;2.70;;;2.50;;
3333;SDS011;1679;50.392;8.008;2022-07-06T00:33:05;3.63;;;2.73;;
3333;SDS011;1679;50.392;8.008;2022-07-06T00:35:31;2.70;;;2.40;;
3333;SDS011;1679;50.392;8.008;2022-07-06T00:37:57;2.07;;;1.97;;
3333;SDS011;1679;50.392;8.008;2022-07-06T00:40:23;3.53;;;2.27;;
3333;SDS011;1679;50.392;8.008;2022-07-06T00:42:48;3.10;;;2.80;;
3333;SDS011;1679;50.392;8.008;2022-07-06T00:45:15;3.73;;;2.90;;
3333;SDS011;1679;50.392;8.008;2022-07-06T00:47:41;2.40;;;2.30;;
3333;SDS011;1679;50.392;8.008;2022-07-06T00:50:08;4.03;;;2.93;;
3333;SDS011;1679;50.392;8.008;2022-07-06T00:52:42;2.63;;;2.23;;
3333;SDS011;1679;50.392;8.008;2022-07-06T00:55:14;3.40;;;2.40;;
3333;SDS011;1679;50.392;8.008;2022-07-06T00:57:40;3.13;;;2.40;;
3333;SDS011;1679;50.392;8.008;2022-07-06T01:00:07;2.50;;;2.30;;
3333;SDS011;1679;50.392;8.008;2022-07-06T01:02:35;2.80;;;2.60;;
3333;SDS011;1679;50.392;8.008;2022-07-06T01:05:02;2.80;;;2.60;;
3333;SDS011;1679;50.392;8.008;2022-07-06T01:07:30;2.37;;;2.17;;
3333;SDS011;1679;50.392;8.008;2022-07-06T01:09:56;2.67;;;2.43;;
3333;SDS011;1679;50.392;8.008;2022-07-06T01:12:22;3.77;;;3.47;;
3333;SDS011;1679;50.392;8.008;2022-07-06T01:14:49;2.87;;;2.67;;
3333;SDS011;1679;50.392;8.008;2022-07-06T01:17:15;2.50;;;2.30;;
3333;SDS011;1679;50.392;8.008;2022-07-06T01:19:41;3.07;;;2.70;;
3333;SDS011;1679;50.392;8.008;2022-07-06T01:22:08;2.13;;;2.03;;
3333;SDS011;1679;50.392;8.008;2022-07-06T01:24:37;2.60;;;2.40;;
3333;SDS011;1679;50.392;8.008;2022-07-06T01:27:03;6.73;;;3.00;;
3333;SDS011;1679;50.392;8.008;2022-07-06T01:29:30;3.43;;;3.10;;
3333;SDS011;1679;50.392;8.008;2022-07-06T01:31:56;4.23;;;2.83;;
3333;SDS011;1679;50.392;8.008;2022-07-06T01:34:22;2.83;;;2.60;;
3333;SDS011;1679;50.392;8.008;2022-07-06T01:36:48;4.10;;;2.80;;
3333;SDS011;1679;50.392;8.008;2022-07-06T01:39:14;3.00;;;2.80;;
3333;SDS011;1679;50.392;8.008;2022-07-06T01:41:39;3.63;;;2.90;;
3333;SDS011;1679;50.392;8.008;2022-07-06T01:44:05;3.47;;;3.17;;
3333;SDS011;1679;50.392;8.008;2022-07-06T01:46:31;4.00;;;3.00;;
3333;SDS011;1679;50.392;8.008;2022-07-06T01:48:57;3.10;;;2.90;;
3333;SDS011;1679;50.392;8.008;2022-07-06T01:51:23;3.40;;;3.03;;
3333;SDS011;1679;50.392;8.008;2022-07-06T01:53:49;4.07;;;2.93;;
3333;SDS011;1679;50.392;8.008;2022-07-06T01:56:16;2.67;;;2.47;;
3333;SDS011;1679;50.392;8.008;2022-07-06T01:58:44;3.30;;;3.10;;
3333;SDS011;1679;50.392;8.008;2022-07-06T02:01:10;2.80;;;2.60;;
3333;SDS011;1679;50.392;8.008;2022-07-06T02:03:37;3.00;;;2.80;;
3333;SDS011;1679;50.392;8.008;2022-07-06T02:06:03;3.60;;;3.30;;
3333;SDS011;1679;50.392;8.008;2022-07-06T02:08:30;4.60;;;3.43;;
3333;SDS011;1679;50.392;8.008;2022-07-06T02:10:56;5.13;;;3.10;;
3333;SDS011;1679;50.392;8.008;2022-07-06T02:13:22;3.60;;;3.30;;
3333;SDS011;1679;50.392;8.008;2022-07-06T02:15:48;3.40;;;3.00;;
3333;SDS011;1679;50.392;8.008;2022-07-06T02:18:14;5.00;;;3.60;;
3333;SDS011;1679;50.392;8.008;2022-07-06T02:20:39;3.87;;;3.43;;
3333;SDS011;1679;50.392;8.008;2022-07-06T02:23:05;5.00;;;3.37;;
3333;SDS011;1679;50.392;8.008;2022-07-06T02:25:30;3.20;;;2.90;;
3333;SDS011;1679;50.392;8.008;2022-07-06T02:27:56;4.40;;;3.43;;
3333;SDS011;1679;50.392;8.008;2022-07-06T02:30:21;4.27;;;3.30;;
3333;SDS011;1679;50.392;8.008;2022-07-06T02:32:47;4.43;;;3.20;;
3333;SDS011;1679;50.392;8.008;2022-07-06T02:35:13;3.50;;;3.20;;
3333;SDS011;1679;50.392;8.008;2022-07-06T02:37:38;6.90;;;4.40;;
3333;SDS011;1679;50.392;8.008;2022-07-06T02:40:04;4.80;;;3.63;;
3333;SDS011;1679;50.392;8.008;2022-07-06T02:42:30;7.20;;;4.10;;
3333;SDS011;1679;50.392;8.008;2022-07-06T02:44:56;4.67;;;4.37;;
3333;SDS011;1679;50.392;8.008;2022-07-06T02:47:22;4.30;;;3.90;;
3333;SDS011;1679;50.392;8.008;2022-07-06T02:49:47;5.03;;;3.77;;
3333;SDS011;1679;50.392;8.008;2022-07-06T02:52:13;5.00;;;4.50;;
3333;SDS011;1679;50.392;8.008;2022-07-06T02:54:39;6.50;;;4.60;;
3333;SDS011;1679;50.392;8.008;2022-07-06T02:57:04;4.30;;;4.00;;
3333;SDS011;1679;50.392;8.008;2022-07-06T02:59:30;4.27;;;3.87;;
3333;SDS011;1679;50.392;8.008;2022-07-06T03:01:55;4.37;;;4.00;;
3333;SDS011;1679;50.392;8.008;2022-07-06T03:04:21;4.30;;;3.90;;
3333;SDS011;1679;50.392;8.008;2022-07-06T03:06:46;5.93;;;4.17;;
3333;SDS011;1679;50.392;8.008;2022-07-06T03:09:12;4.67;;;4.30;;
3333;SDS011;1679;50.392;8.008;2022-07-06T03:11:38;4.33;;;3.93;;
3333;SDS011;1679;50.392;8.008;2022-07-06T03:14:04;7.73;;;4.00;;
3333;SDS011;1679;50.392;8.008;2022-07-06T03:16:30;5.50;;;4.03;;
3333;SDS011;1679;50.392;8.008;2022-07-06T03:18:55;4.37;;;3.20;;
3333;SDS011;1679;50.392;8.008;2022-07-06T03:21:21;4.57;;;3.90;;
3333;SDS011;1679;50.392;8.008;2022-07-06T03:23:48;3.47;;;3.17;;
3333;SDS011;1679;50.392;8.008;2022-07-06T03:26:13;4.07;;;3.87;;
3333;SDS011;1679;50.392;8.008;2022-07-06T03:28:39;4.23;;;3.60;;
3333;SDS011;1679;50.392;8.008;2022-07-06T03:31:04;6.10;;;3.67;;
3333;SDS011;1679;50.392;8.008;2022-07-06T03:33:30;3.90;;;3.60;;
3333;SDS011;1679;50.392;8.008;2022-07-06T03:35:56;4.00;;;3.50;;
3333;SDS011;1679;50.392;8.008;2022-07-06T03:38:22;6.03;;;4.17;;
3333;SDS011;1679;50.392;8.008;2022-07-06T03:40:47;6.13;;;3.67;;
3333;SDS011;1679;50.392;8.008;2022-07-06T03:43:13;4.50;;;4.10;;
3333;SDS011;1679;50.392;8.008;2022-07-06T03:45:38;5.90;;;3.83;;
3333;SDS011;1679;50.392;8.008;2022-07-06T03:48:04;4.70;;;3.97;;
3333;SDS011;1679;50.392;8.008;2022-07-06T03:50:30;4.90;;;3.23;;
3333;SDS011;1679;50.392;8.008;2022-07-06T03:52:55;5.33;;;3.53;;
3333;SDS011;1679;50.392;8.008;2022-07-06T03:55:21;4.33;;;3.93;;
3333;SDS011;1679;50.392;8.008;2022-07-06T03:57:47;3.83;;;3.50;;
3333;SDS011;1679;50.392;8.008;2022-07-06T04:00:12;3.20;;;3.00;;
3333;SDS011;1679;50.392;8.008;2022-07-06T04:02:38;3.93;;;3.63;;
3333;SDS011;1679;50.392;8.008;2022-07-06T04:05:04;3.50;;;3.30;;
3333;SDS011;1679;50.392;8.008;2022-07-06T04:07:30;4.87;;;4.20;;
3333;SDS011;1679;50.392;8.008;2022-07-06T04:09:55;5.27;;;4.00;;
3333;SDS011;1679;50.392;8.008;2022-07-06T04:12:21;4.60;;;3.70;;
3333;SDS011;1679;50.392;8.008;2022-07-06T04:14:46;4.73;;;4.30;;
3333;SDS011;1679;50.392;8.008;2022-07-06T04:17:12;6.50;;;3.90;;
3333;SDS011;1679;50.392;8.008;2022-07-06T04:19:56;5.00;;;4.60;;
3333;SDS011;1679;50.392;8.008;2022-07-06T04:22:22;8.90;;;4.47;;
3333;SDS011;1679;50.392;8.008;2022-07-06T04:24:47;8.17;;;4.50;;
3333;SDS011;1679;50.392;8.008;2022-07-06T04:27:13;14.37;;;4.70;;
3333;SDS011;1679;50.392;8.008;2022-07-06T04:29:38;4.40;;;4.00;;
3333;SDS011;1679;50.392;8.008;2022-07-06T04:32:04;5.93;;;3.43;;
3333;SDS011;1679;50.392;8.008;2022-07-06T04:34:30;4.93;;;4.53;;
3333;SDS011;1679;50.392;8.008;2022-07-06T04:36:55;7.17;;;4.63;;
3333;SDS011;1679;50.392;8.008;2022-07-06T04:39:21;5.00;;;4.60;;
3333;SDS011;1679;50.392;8.008;2022-07-06T04:41:46;5.83;;;4.50;;
3333;SDS011;1679;50.392;8.008;2022-07-06T04:44:12;4.40;;;4.10;;
3333;SDS011;1679;50.392;8.008;2022-07-06T04:46:37;5.10;;;4.70;;
3333;SDS011;1679;50.392;8.008;2022-07-06T04:49:03;7.07;;;4.80;;
3333;SDS011;1679;50.392;8.008;2022-07-06T04:51:28;6.90;;;4.90;;
3333;SDS011;1679;50.392;8.008;2022-07-06T04:53:54;5.67;;;5.13;;
3333;SDS011;1679;50.392;8.008;2022-07-06T04:56:19;5.03;;;4.63;;
3333;SDS011;1679;50.392;8.008;2022-07-06T04:58:45;5.10;;;4.70;;
3333;SDS011;1679;50.392;8.008;2022-07-06T05:01:10;9.03;;;5.03;;
3333;SDS011;1679;50.392;8.008;2022-07-06T05:03:36;4.70;;;4.20;;
3333;SDS011;1679;50.392;8.008;2022-07-06T05:06:05;5.70;;;5.07;;
3333;SDS011;1679;50.392;8.008;2022-07-06T05:08:32;7.00;;;5.60;;
3333;SDS011;1679;50.392;8.008;2022-07-06T05:10:58;6.33;;;5.43;;
3333;SDS011;1679;50.392;8.008;2022-07-06T05:13:23;5.47;;;5.00;;
3333;SDS011;1679;50.392;8.008;2022-07-06T05:15:49;6.93;;;5.10;;
3333;SDS011;1679;50.392;8.008;2022-07-06T05:18:14;9.00;;;5.17;;
3333;SDS011;1679;50.392;8.008;2022-07-06T05:20:40;7.33;;;5.17;;
3333;SDS011;1679;50.392;8.008;2022-07-06T05:23:06;5.30;;;4.77;;
3333;SDS011;1679;50.392;8.008;2022-07-06T05:25:31;7.00;;;5.10;;
3333;SDS011;1679;50.392;8.008;2022-07-06T05:27:58;6.50;;;4.80;;
3333;SDS011;1679;50.392;8.008;2022-07-06T05:30:24;5.37;;;4.97;;
3333;SDS011;1679;50.392;8.008;2022-07-06T05:32:50;6.73;;;4.73;;
3333;SDS011;1679;50.392;8.008;2022-07-06T05:35:15;5.43;;;4.40;;
3333;SDS011;1679;50.392;8.008;2022-07-06T05:37:41;6.30;;;4.50;;
3333;SDS011;1679;50.392;8.008;2022-07-06T05:40:07;5.10;;;4.37;;
3333;SDS011;1679;50.392;8.008;2022-07-06T05:42:33;5.70;;;4.37;;
3333;SDS011;1679;50.392;8.008;2022-07-06T05:44:58;6.23;;;4.13;;
3333;SDS011;1679;50.392;8.008;2022-07-06T05:47:24;5.03;;;4.53;;
3333;SDS011;1679;50.392;8.008;2022-07-06T05:50:08;4.87;;;4.47;;
3333;SDS011;1679;50.392;8.008;2022-07-06T05:52:38;6.90;;;4.43;;
3333;SDS011;1679;50.392;8.008;2022-07-06T05:55:04;4.63;;;3.80;;
3333;SDS011;1679;50.392;8.008;2022-07-06T05:57:30;5.50;;;4.37;;
3333;SDS011;1679;50.392;8.008;2022-07-06T05:59:56;6.63;;;3.70;;
3333;SDS011;1679;50.392;8.008;2022-07-06T06:02:21;7.53;;;3.60;;
3333;SDS011;1679;50.392;8.008;2022-07-06T06:04:47;5.43;;;3.70;;
3333;SDS011;1679;50.392;8.008;2022-07-06T06:07:13;5.13;;;4.00;;
3333;SDS011;1679;50.392;8.008;2022-07-06T06:09:38;6.10;;;3.80;;
3333;SDS011;1679;50.392;8.008;2022-07-06T06:12:04;3.90;;;3.60;;
3333;SDS011;1679;50.392;8.008;2022-07-06T06:14:30;4.60;;;4.20;;
3333;SDS011;1679;50.392;8.008;2022-07-06T06:16:55;4.40;;;3.70;;
3333;SDS011;1679;50.392;8.008;2022-07-06T06:19:21;10.40;;;4.00;;
3333;SDS011;1679;50.392;8.008;2022-07-06T06:21:46;7.43;;;4.10;;
3333;SDS011;1679;50.392;8.008;2022-07-06T06:24:12;4.27;;;3.87;;
3333;SDS011;1679;50.392;8.008;2022-07-06T06:26:37;7.10;;;4.23;;
3333;SDS011;1679;50.392;8.008;2022-07-06T06:29:03;4.03;;;3.47;;
3333;SDS011;1679;50.392;8.008;2022-07-06T06:31:28;4.27;;;3.90;;
3333;SDS011;1679;50.392;8.008;2022-07-06T06:33:54;3.90;;;3.60;;
3333;SDS011;1679;50.392;8.008;2022-07-06T06:36:19;4.63;;;3.60;;
3333;SDS011;1679;50.392;8.008;2022-07-06T06:38:45;5.03;;;4.37;;
3333;SDS011;1679;50.392;8.008;2022-07-06T06:41:10;4.53;;;4.23;;
3333;SDS011;1679;50.392;8.008;2022-07-06T06:43:36;6.50;;;4.13;;
3333;SDS011;1679;50.392;8.008;2022-07-06T06:46:03;4.20;;;3.33;;
3333;SDS011;1679;50.392;8.008;2022-07-06T06:48:28;4.80;;;3.60;;
3333;SDS011;1679;50.392;8.008;2022-07-06T06:50:54;4.50;;;3.37;;
3333;SDS011;1679;50.392;8.008;2022-07-06T06:53:19;3.70;;;3.40;;
3333;SDS011;1679;50.392;8.008;2022-07-06T06:55:45;3.73;;;3.43;;
3333;SDS011;1679;50.392;8.008;2022-07-06T06:58:10;3.77;;;3.30;;
3333;SDS011;1679;50.392;8.008;2022-07-06T07:00:36;4.97;;;3.33;;
3333;SDS011;1679;50.392;8.008;2022-07-06T07:03:01;4.37;;;3.97;;
3333;SDS011;1679;50.392;8.008;2022-07-06T07:05:27;6.50;;;4.53;;
3333;SDS011;1679;50.392;8.008;2022-07-06T07:07:53;4.90;;;3.43;;
3333;SDS011;1679;50.392;8.008;2022-07-06T07:10:19;4.73;;;3.23;;
3333;SDS011;1679;50.392;8.008;2022-07-06T07:12:46;3.57;;;3.27;;
3333;SDS011;1679;50.392;8.008;2022-07-06T07:15:13;2.90;;;2.80;;
3333;SDS011;1679;50.392;8.008;2022-07-06T07:17:39;4.40;;;4.00;;
3333;SDS011;1679;50.392;8.008;2022-07-06T07:20:05;4.13;;;3.33;;
3333;SDS011;1679;50.392;8.008;2022-07-06T07:22:31;3.00;;;2.80;;
3333;SDS011;1679;50.392;8.008;2022-07-06T07:24:57;5.10;;;3.63;;
3333;SDS011;1679;50.392;8.008;2022-07-06T07:27:24;3.10;;;2.90;;
3333;SDS011;1679;50.392;8.008;2022-07-06T07:29:50;3.60;;;3.30;;
3333;SDS011;1679;50.392;8.008;2022-07-06T07:32:16;4.33;;;3.57;;
3333;SDS011;1679;50.392;8.008;2022-07-06T07:34:41;4.50;;;3.90;;
3333;SDS011;1679;50.392;8.008;2022-07-06T07:37:07;3.60;;;3.40;;
3333;SDS011;1679;50.392;8.008;2022-07-06T07:39:32;4.83;;;3.40;;
3333;SDS011;1679;50.392;8.008;2022-07-06T07:41:58;4.83;;;3.70;;
3333;SDS011;1679;50.392;8.008;2022-07-06T07:44:23;4.07;;;3.77;;
3333;SDS011;1679;50.392;8.008;2022-07-06T07:46:50;4.80;;;4.40;;
3333;SDS011;1679;50.392;8.008;2022-07-06T07:49:17;4.13;;;3.83;;
3333;SDS011;1679;50.392;8.008;2022-07-06T07:51:44;5.83;;;3.40;;
3333;SDS011;1679;50.392;8.008;2022-07-06T07:54:11;3.17;;;2.87;;
3333;SDS011;1679;50.392;8.008;2022-07-06T07:56:37;3.93;;;3.60;;
3333;SDS011;1679;50.392;8.008;2022-07-06T07:59:05;4.70;;;4.40;;
3333;SDS011;1679;50.392;8.008;2022-07-06T08:01:31;4.47;;;4.23;;
3333;SDS011;1679;50.392;8.008;2022-07-06T08:03:57;6.80;;;4.00;;
3333;SDS011;1679;50.392;8.008;2022-07-06T08:06:24;7.17;;;3.80;;
3333;SDS011;1679;50.392;8.008;2022-07-06T08:08:49;5.17;;;3.43;;
3333;SDS011;1679;50.392;8.008;2022-07-06T08:11:15;4.27;;;3.80;;
3333;SDS011;1679;50.392;8.008;2022-07-06T08:13:41;4.47;;;3.60;;
3333;SDS011;1679;50.392;8.008;2022-07-06T08:16:06;4.63;;;3.03;;
3333;SDS011;1679;50.392;8.008;2022-07-06T08:18:34;3.67;;;3.33;;
3333;SDS011;1679;50.392;8.008;2022-07-06T08:21:00;6.03;;;3.20;;
3333;SDS011;1679;50.392;8.008;2022-07-06T08:23:26;3.33;;;3.13;;
3333;SDS011;1679;50.392;8.008;2022-07-06T08:25:51;3.37;;;3.17;;
3333;SDS011;1679;50.392;8.008;2022-07-06T08:28:17;2.60;;;2.40;;
3333;SDS011;1679;50.392;8.008;2022-07-06T08:30:42;2.70;;;2.50;;
3333;SDS011;1679;50.392;8.008;2022-07-06T08:33:08;2.87;;;2.23;;
3333;SDS011;1679;50.392;8.008;2022-07-06T08:35:33;6.73;;;2.83;;
3333;SDS011;1679;50.392;8.008;2022-07-06T08:37:59;2.50;;;2.40;;
3333;SDS011;1679;50.392;8.008;2022-07-06T08:40:25;3.00;;;2.80;;
3333;SDS011;1679;50.392;8.008;2022-07-06T08:42:56;3.00;;;2.80;;
3333;SDS011;1679;50.392;8.008;2022-07-06T08:45:24;2.80;;;2.60;;
3333;SDS011;1679;50.392;8.008;2022-07-06T08:47:51;6.90;;;3.20;;
3333;SDS011;1679;50.392;8.008;2022-07-06T08:50:19;4.07;;;3.53;;
3333;SDS011;1679;50.392;8.008;2022-07-06T08:52:46;3.47;;;2.23;;
3333;SDS011;1679;50.392;8.008;2022-07-06T08:55:12;2.20;;;2.10;;
3333;SDS011;1679;50.392;8.008;2022-07-06T08:57:38;2.77;;;2.57;;
3333;SDS011;1679;50.392;8.008;2022-07-06T09:00:05;2.50;;;1.60;;
3333;SDS011;1679;50.392;8.008;2022-07-06T09:02:34;6.00;;;2.30;;
3333;SDS011;1679;50.392;8.008;2022-07-06T09:05:02;2.33;;;2.13;;
3333;SDS011;1679;50.392;8.008;2022-07-06T09:07:29;2.27;;;1.97;;
3333;SDS011;1679;50.392;8.008;2022-07-06T09:09:55;6.53;;;2.20;;
3333;SDS011;1679;50.392;8.008;2022-07-06T09:12:25;2.37;;;2.17;;
3333;SDS011;1679;50.392;8.008;2022-07-06T09:14:55;3.30;;;2.00;;
3333;SDS011;1679;50.392;8.008;2022-07-06T09:17:24;5.40;;;2.13;;
3333;SDS011;1679;50.392;8.008;2022-07-06T09:19:52;2.23;;;2.03;;
3333;SDS011;1679;50.392;8.008;2022-07-06T09:22:25;3.10;;;2.07;;
3333;SDS011;1679;50.392;8.008;2022-07-06T09:24:51;2.50;;;2.30;;
3333;SDS011;1679;50.392;8.008;2022-07-06T09:27:17;4.43;;;2.30;;
3333;SDS011;1679;50.392;8.008;2022-07-06T09:29:43;4.10;;;2.50;;
3333;SDS011;1679;50.392;8.008;2022-07-06T09:32:10;2.43;;;2.27;;
3333;SDS011;1679;50.392;8.008;2022-07-06T09:34:42;2.20;;;2.10;;
3333;SDS011;1679;50.392;8.008;2022-07-06T09:37:12;5.00;;;2.10;;
3333;SDS011;1679;50.392;8.008;2022-07-06T09:39:38;3.10;;;2.83;;
3333;SDS011;1679;50.392;8.008;2022-07-06T09:42:04;3.20;;;3.00;;
3333;SDS011;1679;50.392;8.008;2022-07-06T09:44:33;2.70;;;2.50;;
3333;SDS011;1679;50.392;8.008;2022-07-06T09:47:03;2.83;;;2.60;;
3333;SDS011;1679;50.392;8.008;2022-07-06T09:49:30;2.80;;;2.60;;
3333;SDS011;1679;50.392;8.008;2022-07-06T09:51:59;2.40;;;2.30;;
3333;SDS011;1679;50.392;8.008;2022-07-06T09:54:26;3.23;;;2.80;;
3333;SDS011;1679;50.392;8.008;2022-07-06T09:56:52;2.67;;;2.53;;
3333;SDS011;1679;50.392;8.008;2022-07-06T09:59:20;3.20;;;3.00;;
3333;SDS011;1679;50.392;8.008;2022-07-06T10:01:47;3.73;;;2.90;;
3333;SDS011;1679;50.392;8.008;2022-07-06T10:04:16;2.70;;;2.40;;
3333;SDS011;1679;50.392;8.008;2022-07-06T10:06:45;3.90;;;2.27;;
3333;SDS011;1679;50.392;8.008;2022-07-06T10:09:13;2.87;;;2.30;;
3333;SDS011;1679;50.392;8.008;2022-07-06T10:12:00;2.50;;;2.40;;
3333;SDS011;1679;50.392;8.008;2022-07-06T10:14:26;5.67;;;3.17;;
3333;SDS011;1679;50.392;8.008;2022-07-06T10:16:54;2.73;;;2.63;;
3333;SDS011;1679;50.392;8.008;2022-07-06T10:19:22;2.30;;;2.10;;
3333;SDS011;1679;50.392;8.008;2022-07-06T10:21:48;2.30;;;2.20;;
3333;SDS011;1679;50.392;8.008;2022-07-06T10:24:14;2.50;;;2.40;;
3333;SDS011;1679;50.392;8.008;2022-07-06T10:26:40;4.10;;;1.90;;
3333;SDS011;1679;50.392;8.008;2022-07-06T10:29:06;2.70;;;2.50;;
3333;SDS011;1679;50.392;8.008;2022-07-06T10:31:33;2.37;;;2.20;;
3333;SDS011;1679;50.392;8.008;2022-07-06T10:34:02;2.47;;;2.27;;
3333;SDS011;1679;50.392;8.008;2022-07-06T10:36:30;4.47;;;2.53;;
3333;SDS011;1679;50.392;8.008;2022-07-06T10:39:01;3.53;;;2.10;;
3333;SDS011;1679;50.392;8.008;2022-07-06T10:41:46;3.40;;;2.07;;
3333;SDS011;1679;50.392;8.008;2022-07-06T10:44:16;3.40;;;2.50;;
3333;SDS011;1679;50.392;8.008;2022-07-06T10:46:49;2.53;;;2.30;;
3333;SDS011;1679;50.392;8.008;2022-07-06T10:49:19;2.60;;;2.50;;
3333;SDS011;1679;50.392;8.008;2022-07-06T10:51:44;3.13;;;2.83;;
3333;SDS011;1679;50.392;8.008;2022-07-06T10:54:12;2.80;;;2.60;;
3333;SDS011;1679;50.392;8.008;2022-07-06T10:59:08;2.80;;;2.10;;
3333;SDS011;1679;50.392;8.008;2022-07-06T11:01:35;3.57;;;2.17;;
3333;SDS011;1679;50.392;8.008;2022-07-06T11:06:28;2.87;;;2.50;;
3333;SDS011;1679;50.392;8.008;2022-07-06T11:08:58;2.60;;;2.40;;
3333;SDS011;1679;50.392;8.008;2022-07-06T11:16:27;2.53;;;2.30;;
3333;SDS011;1679;50.392;8.008;2022-07-06T11:21:34;2.47;;;2.37;;
3333;SDS011;1679;50.392;8.008;2022-07-06T11:24:29;3.27;;;3.07;;
3333;SDS011;1679;50.392;8.008;2022-07-06T11:26:56;3.47;;;3.27;;
3333;SDS011;1679;50.392;8.008;2022-07-06T11:29:24;2.40;;;2.30;;
3333;SDS011;1679;50.392;8.008;2022-07-06T11:31:52;2.40;;;2.30;;
3333;SDS011;1679;50.392;8.008;2022-07-06T11:34:25;2.20;;;2.07;;
3333;SDS011;1679;50.392;8.008;2022-07-06T11:36:56;2.40;;;2.23;;
3333;SDS011;1679;50.392;8.008;2022-07-06T11:39:30;2.67;;;2.47;;
3333;SDS011;1679;50.392;8.008;2022-07-06T11:41:59;2.70;;;2.60;;
3333;SDS011;1679;50.392;8.008;2022-07-06T11:44:26;2.70;;;2.60;;
3333;SDS011;1679;50.392;8.008;2022-07-06T11:46:52;2.60;;;2.50;;
3333;SDS011;1679;50.392;8.008;2022-07-06T11:49:19;3.33;;;2.60;;
3333;SDS011;1679;50.392;8.008;2022-07-06T11:51:45;3.73;;;2.20;;
3333;SDS011;1679;50.392;8.008;2022-07-06T11:54:13;2.67;;;2.47;;
3333;SDS011;1679;50.392;8.008;2022-07-06T11:56:46;3.07;;;2.10;;
3333;SDS011;1679;50.392;8.008;2022-07-06T11:59:20;5.27;;;1.87;;
3333;SDS011;1679;50.392;8.008;2022-07-06T12:01:57;3.77;;;2.00;;
3333;SDS011;1679;50.392;8.008;2022-07-06T12:04:24;5.10;;;2.27;;
3333;SDS011;1679;50.392;8.008;2022-07-06T12:06:50;3.83;;;1.90;;
3333;SDS011;1679;50.392;8.008;2022-07-06T12:09:16;2.70;;;1.77;;
3333;SDS011;1679;50.392;8.008;2022-07-06T12:11:44;2.30;;;1.50;;
3333;SDS011;1679;50.392;8.008;2022-07-06T12:14:15;1.70;;;1.60;;
3333;SDS011;1679;50.392;8.008;2022-07-06T12:16:46;2.47;;;1.90;;
3333;SDS011;1679;50.392;8.008;2022-07-06T12:19:13;2.17;;;1.87;;
3333;SDS011;1679;50.392;8.008;2022-07-06T12:21:46;2.43;;;2.30;;
3333;SDS011;1679;50.392;8.008;2022-07-06T12:24:32;2.90;;;1.90;;
3333;SDS011;1679;50.392;8.008;2022-07-06T12:26:59;2.30;;;1.93;;
3333;SDS011;1679;50.392;8.008;2022-07-06T12:29:41;2.10;;;2.00;;
3333;SDS011;1679;50.392;8.008;2022-07-06T12:32:13;2.30;;;2.20;;
3333;SDS011;1679;50.392;8.008;2022-07-06T12:34:40;2.23;;;2.00;;
3333;SDS011;1679;50.392;8.008;2022-07-06T12:37:06;2.33;;;1.67;;
3333;SDS011;1679;50.392;8.008;2022-07-06T12:39:40;2.60;;;1.90;;
3333;SDS011;1679;50.392;8.008;2022-07-06T12:42:10;1.50;;;1.40;;
3333;SDS011;1679;50.392;8.008;2022-07-06T12:44:41;4.03;;;2.23;;
3333;SDS011;1679;50.392;8.008;2022-07-06T12:47:09;1.90;;;1.73;;
3333;SDS011;1679;50.392;8.008;2022-07-06T12:49:35;2.90;;;1.60;;
3333;SDS011;1679;50.392;8.008;2022-07-06T12:54:35;1.80;;;1.50;;
3333;SDS011;1679;50.392;8.008;2022-07-06T12:57:09;2.60;;;1.40;;
3333;SDS011;1679;50.392;8.008;2022-07-06T12:59:38;1.83;;;1.73;;
3333;SDS011;1679;50.392;8.008;2022-07-06T13:02:06;2.47;;;1.70;;
3333;SDS011;1679;50.392;8.008;2022-07-06T13:04:33;2.20;;;2.00;;
3333;SDS011;1679;50.392;8.008;2022-07-06T13:06:59;2.37;;;1.93;;
3333;SDS011;1679;50.392;8.008;2022-07-06T13:09:26;2.03;;;1.83;;
3333;SDS011;1679;50.392;8.008;2022-07-06T13:11:52;2.53;;;1.53;;
3333;SDS011;1679;50.392;8.008;2022-07-06T13:14:18;2.07;;;1.60;;
3333;SDS011;1679;50.392;8.008;2022-07-06T13:16:44;2.57;;;1.60;;
3333;SDS011;1679;50.392;8.008;2022-07-06T13:19:11;1.53;;;1.43;;
3333;SDS011;1679;50.392;8.008;2022-07-06T13:21:37;9.63;;;1.70;;
3333;SDS011;1679;50.392;8.008;2022-07-06T13:24:04;1.80;;;1.70;;
3333;SDS011;1679;50.392;8.008;2022-07-06T13:26:30;3.00;;;1.90;;
3333;SDS011;1679;50.392;8.008;2022-07-06T13:28:59;3.97;;;2.00;;
3333;SDS011;1679;50.392;8.008;2022-07-06T13:31:25;1.70;;;1.60;;
3333;SDS011;1679;50.392;8.008;2022-07-06T13:33:51;2.30;;;1.60;;
3333;SDS011;1679;50.392;8.008;2022-07-06T13:36:16;4.33;;;1.47;;
3333;SDS011;1679;50.392;8.008;2022-07-06T13:38:42;5.33;;;1.80;;
3333;SDS011;1679;50.392;8.008;2022-07-06T13:41:08;3.97;;;1.67;;
3333;SDS011;1679;50.392;8.008;2022-07-06T13:43:33;3.23;;;1.60;;
3333;SDS011;1679;50.392;8.008;2022-07-06T13:46:05;3.70;;;1.63;;
3333;SDS011;1679;50.392;8.008;2022-07-06T13:48:31;3.40;;;1.90;;
3333;SDS011;1679;50.392;8.008;2022-07-06T13:50:57;1.97;;;1.50;;
3333;SDS011;1679;50.392;8.008;2022-07-06T13:53:23;2.20;;;2.00;;
3333;SDS011;1679;50.392;8.008;2022-07-06T13:55:49;2.30;;;2.00;;
3333;SDS011;1679;50.392;8.008;2022-07-06T13:58:15;2.27;;;2.17;;
3333;SDS011;1679;50.392;8.008;2022-07-06T14:00:41;2.33;;;2.20;;
3333;SDS011;1679;50.392;8.008;2022-07-06T14:03:07;4.40;;;2.40;;
3333;SDS011;1679;50.392;8.008;2022-07-06T14:05:33;2.43;;;2.23;;
3333;SDS011;1679;50.392;8.008;2022-07-06T14:07:59;2.23;;;2.10;;
3333;SDS011;1679;50.392;8.008;2022-07-06T14:10:24;2.53;;;2.33;;
3333;SDS011;1679;50.392;8.008;2022-07-06T14:12:50;2.80;;;2.60;;
3333;SDS011;1679;50.392;8.008;2022-07-06T14:15:15;3.73;;;3.00;;
3333;SDS011;1679;50.392;8.008;2022-07-06T14:17:41;5.13;;;2.77;;
3333;SDS011;1679;50.392;8.008;2022-07-06T14:20:07;2.37;;;2.17;;
3333;SDS011;1679;50.392;8.008;2022-07-06T14:22:33;2.57;;;2.37;;
3333;SDS011;1679;50.392;8.008;2022-07-06T14:24:58;2.53;;;2.37;;
3333;SDS011;1679;50.392;8.008;2022-07-06T14:27:24;3.20;;;3.00;;
3333;SDS011;1679;50.392;8.008;2022-07-06T14:29:50;2.63;;;2.43;;
3333;SDS011;1679;50.392;8.008;2022-07-06T14:32:15;2.23;;;2.13;;
3333;SDS011;1679;50.392;8.008;2022-07-06T14:34:41;3.57;;;2.37;;
3333;SDS011;1679;50.392;8.008;2022-07-06T14:37:07;2.90;;;2.60;;
3333;SDS011;1679;50.392;8.008;2022-07-06T14:39:32;2.33;;;2.23;;
3333;SDS011;1679;50.392;8.008;2022-07-06T14:41:58;2.73;;;2.53;;
3333;SDS011;1679;50.392;8.008;2022-07-06T14:44:24;2.73;;;2.50;;
3333;SDS011;1679;50.392;8.008;2022-07-06T14:46:51;2.60;;;2.00;;
3333;SDS011;1679;50.392;8.008;2022-07-06T14:49:16;4.30;;;2.40;;
3333;SDS011;1679;50.392;8.008;2022-07-06T14:51:42;6.40;;;1.93;;
3333;SDS011;1679;50.392;8.008;2022-07-06T14:54:08;2.90;;;2.60;;
3333;SDS011;1679;50.392;8.008;2022-07-06T14:56:34;2.30;;;2.20;;
3333;SDS011;1679;50.392;8.008;2022-07-06T14:59:00;3.10;;;1.93;;
3333;SDS011;1679;50.392;8.008;2022-07-06T15:01:25;2.27;;;2.00;;
3333;SDS011;1679;50.392;8.008;2022-07-06T15:03:51;2.43;;;2.23;;
3333;SDS011;1679;50.392;8.008;2022-07-06T15:06:17;2.50;;;2.30;;
3333;SDS011;1679;50.392;8.008;2022-07-06T15:08:43;3.37;;;2.27;;
3333;SDS011;1679;50.392;8.008;2022-07-06T15:11:08;2.40;;;2.20;;
3333;SDS011;1679;50.392;8.008;2022-07-06T15:13:34;3.37;;;2.40;;
3333;SDS011;1679;50.392;8.008;2022-07-06T15:15:59;2.40;;;2.20;;
3333;SDS011;1679;50.392;8.008;2022-07-06T15:18:25;2.43;;;2.23;;
3333;SDS011;1679;50.392;8.008;2022-07-06T15:20:51;3.60;;;1.83;;
3333;SDS011;1679;50.392;8.008;2022-07-06T15:23:17;2.57;;;2.23;;
3333;SDS011;1679;50.392;8.008;2022-07-06T15:25:43;4.20;;;2.33;;
3333;SDS011;1679;50.392;8.008;2022-07-06T15:28:09;2.27;;;2.00;;